sensor_id;sensor_type;location;lat;lon;timestamp;pressure;altitude;pressure_sealevel;temperature;humidity
61805;BME280;47725;47.912;7.356;2023-08-06T00:02:57;98606.65;;;19.23;58.59
61805;BME280;47725;47.912;7.356;2023-08-06T00:06:57;98599.94;;;19.19;59.04
61805;BME280;47725;47.912;7.356;2023-08-06T00:10:57;98595.43;;;19.13;59.23
61805;BME280;47725;47.912;7.356;2023-08-06T00:14:57;98593.27;;;19.09;58.99
61805;BME280;47725;47.912;7.356;2023-08-06T00:18:57;98589.39;;;19.09;58.53
61805;BME280;47725;47.912;7.356;2023-08-06T00:22:57;98585.29;;;19.07;59.86
61805;BME280;47725;47.912;7.356;2023-08-06T00:26:57;98581.87;;;19.05;59.68
61805;BME280;47725;47.912;7.356;2023-08-06T00:30:57;98577.08;;;19.04;59.46
61805;BME280;47725;47.912;7.356;2023-08-06T00:34:57;98573.13;;;19.04;59.50
61805;BME280;47725;47.912;7.356;2023-08-06T00:38:57;98567.74;;;19.03;59.62
61805;BME280;47725;47.912;7.356;2023-08-06T00:42:57;98563.85;;;19.01;60.38
61805;BME280;47725;47.912;7.356;2023-08-06T00:46:57;98559.92;;;19.00;60.21
61805;BME280;47725;47.912;7.356;2023-08-06T00:50:57;98557.37;;;18.98;60.41
61805;BME280;47725;47.912;7.356;2023-08-06T00:54:57;98555.93;;;18.95;60.27
61805;BME280;47725;47.912;7.356;2023-08-06T00:58:57;98552.98;;;18.96;59.94
61805;BME280;47725;47.912;7.356;2023-08-06T01:02:57;98550.66;;;18.95;60.69
61805;BME280;47725;47.912;7.356;2023-08-06T01:07:10;98546.56;;;18.91;61.67
61805;BME280;47725;47.912;7.356;2023-08-06T01:15:01;98536.80;;;18.89;60.76
61805;BME280;47725;47.912;7.356;2023-08-06T01:18:57;98533.84;;;18.89;61.01
61805;BME280;47725;47.912;7.356;2023-08-06T01:22:57;98531.42;;;18.87;61.78
61805;BME280;47725;47.912;7.356;2023-08-06T01:30:57;98530.94;;;18.80;62.16
61805;BME280;47725;47.912;7.356;2023-08-06T01:34:57;98531.40;;;18.81;61.60
61805;BME280;47725;47.912;7.356;2023-08-06T01:38:57;98533.64;;;18.81;61.87
61805;BME280;47725;47.912;7.356;2023-08-06T01:42:57;98538.78;;;18.84;61.23
61805;BME280;47725;47.912;7.356;2023-08-06T01:46:57;98541.91;;;18.89;61.33
61805;BME280;47725;47.912;7.356;2023-08-06T01:50:57;98545.35;;;18.90;62.17
61805;BME280;47725;47.912;7.356;2023-08-06T01:54:57;98549.14;;;18.89;61.97
61805;BME280;47725;47.912;7.356;2023-08-06T01:58:57;98553.43;;;18.87;60.91
61805;BME280;47725;47.912;7.356;2023-08-06T02:02:57;98555.55;;;18.85;61.31
61805;BME280;47725;47.912;7.356;2023-08-06T02:06:57;98555.13;;;18.85;60.82
61805;BME280;47725;47.912;7.356;2023-08-06T02:10:57;98558.22;;;18.87;60.48
61805;BME280;47725;47.912;7.356;2023-08-06T02:14:57;98561.35;;;18.89;60.27
61805;BME280;47725;47.912;7.356;2023-08-06T02:18:57;98564.81;;;18.90;60.45
61805;BME280;47725;47.912;7.356;2023-08-06T02:22:57;98566.27;;;18.89;60.35
61805;BME280;47725;47.912;7.356;2023-08-06T02:26:57;98566.64;;;18.87;59.71
61805;BME280;47725;47.912;7.356;2023-08-06T02:30:57;98563.16;;;18.82;59.49
61805;BME280;47725;47.912;7.356;2023-08-06T02:34:57;98561.16;;;18.76;59.00
61805;BME280;47725;47.912;7.356;2023-08-06T02:38:57;98559.07;;;18.73;58.54
61805;BME280;47725;47.912;7.356;2023-08-06T02:42:57;98557.00;;;18.68;57.78
61805;BME280;47725;47.912;7.356;2023-08-06T02:46:57;98556.52;;;18.62;58.12
61805;BME280;47725;47.912;7.356;2023-08-06T02:50:57;98555.66;;;18.56;58.28
61805;BME280;47725;47.912;7.356;2023-08-06T02:54:57;98553.92;;;18.51;58.22
61805;BME280;47725;47.912;7.356;2023-08-06T02:58:57;98552.75;;;18.46;57.77
61805;BME280;47725;47.912;7.356;2023-08-06T03:02:57;98556.68;;;18.39;57.87
61805;BME280;47725;47.912;7.356;2023-08-06T03:06:57;98561.88;;;18.32;57.74
61805;BME280;47725;47.912;7.356;2023-08-06T03:10:57;98563.00;;;18.24;58.14
61805;BME280;47725;47.912;7.356;2023-08-06T03:14:57;98564.18;;;18.18;57.68
61805;BME280;47725;47.912;7.356;2023-08-06T03:18:57;98563.48;;;18.14;57.51
61805;BME280;47725;47.912;7.356;2023-08-06T03:22:57;98561.21;;;18.11;57.15
61805;BME280;47725;47.912;7.356;2023-08-06T03:26:57;98558.92;;;18.08;56.34
61805;BME280;47725;47.912;7.356;2023-08-06T03:31:00;98558.12;;;18.05;56.97
61805;BME280;47725;47.912;7.356;2023-08-06T03:34:57;98558.01;;;18.04;57.16
61805;BME280;47725;47.912;7.356;2023-08-06T03:38:57;98559.44;;;18.03;57.66
61805;BME280;47725;47.912;7.356;2023-08-06T03:42:57;98560.64;;;18.01;58.64
61805;BME280;47725;47.912;7.356;2023-08-06T03:46:57;98563.59;;;17.96;59.71
61805;BME280;47725;47.912;7.356;2023-08-06T03:50:57;98566.38;;;17.88;60.01
61805;BME280;47725;47.912;7.356;2023-08-06T03:54:57;98570.12;;;17.77;60.67
61805;BME280;47725;47.912;7.356;2023-08-06T03:58:57;98573.02;;;17.67;60.57
61805;BME280;47725;47.912;7.356;2023-08-06T04:02:57;98573.11;;;17.59;60.63
61805;BME280;47725;47.912;7.356;2023-08-06T04:06:57;98573.41;;;17.52;60.93
61805;BME280;47725;47.912;7.356;2023-08-06T04:10:57;98573.56;;;17.47;60.61
61805;BME280;47725;47.912;7.356;2023-08-06T04:14:57;98572.94;;;17.43;60.87
61805;BME280;47725;47.912;7.356;2023-08-06T04:18:57;98572.19;;;17.39;61.07
61805;BME280;47725;47.912;7.356;2023-08-06T04:22:57;98572.45;;;17.35;61.22
61805;BME280;47725;47.912;7.356;2023-08-06T04:26:57;98574.67;;;17.32;61.55
61805;BME280;47725;47.912;7.356;2023-08-06T04:30:58;98577.81;;;17.29;61.82
61805;BME280;47725;47.912;7.356;2023-08-06T04:34:57;98581.00;;;17.27;61.96
61805;BME280;47725;47.912;7.356;2023-08-06T04:38:57;98583.37;;;17.25;62.18
61805;BME280;47725;47.912;7.356;2023-08-06T04:42:57;98585.42;;;17.22;62.46
61805;BME280;47725;47.912;7.356;2023-08-06T04:46:57;98586.21;;;17.17;62.91
61805;BME280;47725;47.912;7.356;2023-08-06T04:50:57;98584.91;;;17.10;63.37
61805;BME280;47725;47.912;7.356;2023-08-06T04:54:57;98584.39;;;17.01;63.62
61805;BME280;47725;47.912;7.356;2023-08-06T04:58:57;98585.31;;;16.94;63.75
61805;BME280;47725;47.912;7.356;2023-08-06T05:02:58;98584.17;;;16.88;63.91
61805;BME280;47725;47.912;7.356;2023-08-06T05:06:57;98584.36;;;16.84;63.67
61805;BME280;47725;47.912;7.356;2023-08-06T05:10:57;98586.81;;;16.79;63.90
61805;BME280;47725;47.912;7.356;2023-08-06T05:14:57;98587.81;;;16.73;64.02
61805;BME280;47725;47.912;7.356;2023-08-06T05:18:57;98590.09;;;16.70;64.06
61805;BME280;47725;47.912;7.356;2023-08-06T05:22:57;98591.60;;;16.68;63.79
61805;BME280;47725;47.912;7.356;2023-08-06T05:26:57;98593.05;;;16.64;64.16
61805;BME280;47725;47.912;7.356;2023-08-06T05:30:57;98595.45;;;16.62;63.97
61805;BME280;47725;47.912;7.356;2023-08-06T05:34:57;98595.00;;;16.57;64.57
61805;BME280;47725;47.912;7.356;2023-08-06T05:38:57;98594.44;;;16.55;64.48
61805;BME280;47725;47.912;7.356;2023-08-06T05:42:57;98595.75;;;16.56;64.22
61805;BME280;47725;47.912;7.356;2023-08-06T05:46:57;98597.20;;;16.59;64.03
61805;BME280;47725;47.912;7.356;2023-08-06T05:50:57;98599.52;;;16.59;64.07
61805;BME280;47725;47.912;7.356;2023-08-06T05:54:57;98605.91;;;16.59;64.53
61805;BME280;47725;47.912;7.356;2023-08-06T05:58:57;98610.69;;;16.57;64.72
61805;BME280;47725;47.912;7.356;2023-08-06T06:02:57;98614.86;;;16.57;64.33
61805;BME280;47725;47.912;7.356;2023-08-06T06:06:57;98619.51;;;16.56;64.66
61805;BME280;47725;47.912;7.356;2023-08-06T06:10:57;98623.22;;;16.55;64.56
61805;BME280;47725;47.912;7.356;2023-08-06T06:14:57;98627.55;;;16.56;64.79
61805;BME280;47725;47.912;7.356;2023-08-06T06:18:57;98634.20;;;16.56;64.75
61805;BME280;47725;47.912;7.356;2023-08-06T06:22:57;98638.90;;;16.59;64.53
61805;BME280;47725;47.912;7.356;2023-08-06T06:26:57;98642.89;;;16.60;64.61
61805;BME280;47725;47.912;7.356;2023-08-06T06:31:00;98647.90;;;16.61;64.59
61805;BME280;47725;47.912;7.356;2023-08-06T06:34:57;98652.51;;;16.59;65.02
61805;BME280;47725;47.912;7.356;2023-08-06T06:38:57;98657.39;;;16.53;65.87
61805;BME280;47725;47.912;7.356;2023-08-06T06:42:56;98662.80;;;16.47;66.21
61805;BME280;47725;47.912;7.356;2023-08-06T06:46:57;98666.38;;;16.42;66.29
61805;BME280;47725;47.912;7.356;2023-08-06T06:50:57;98669.65;;;16.38;66.37
61805;BME280;47725;47.912;7.356;2023-08-06T06:54:56;98670.37;;;16.36;66.36
61805;BME280;47725;47.912;7.356;2023-08-06T06:58:56;98669.06;;;16.33;66.39
61805;BME280;47725;47.912;7.356;2023-08-06T07:02:57;98669.48;;;16.32;66.53
61805;BME280;47725;47.912;7.356;2023-08-06T07:06:56;98669.73;;;16.34;66.50
61805;BME280;47725;47.912;7.356;2023-08-06T07:11:01;98668.28;;;16.35;66.41
61805;BME280;47725;47.912;7.356;2023-08-06T07:14:57;98668.53;;;16.37;66.38
61805;BME280;47725;47.912;7.356;2023-08-06T07:18:56;98673.00;;;16.39;66.16
61805;BME280;47725;47.912;7.356;2023-08-06T07:22:57;98680.10;;;16.42;66.09
61805;BME280;47725;47.912;7.356;2023-08-06T07:26:56;98684.88;;;16.48;66.05
61805;BME280;47725;47.912;7.356;2023-08-06T07:30:56;98687.52;;;16.54;65.68
61805;BME280;47725;47.912;7.356;2023-08-06T07:34:57;98687.59;;;16.62;65.71
61805;BME280;47725;47.912;7.356;2023-08-06T07:38:56;98690.17;;;16.75;65.41
61805;BME280;47725;47.912;7.356;2023-08-06T07:42:57;98691.90;;;16.92;64.84
61805;BME280;47725;47.912;7.356;2023-08-06T07:46:56;98695.17;;;17.13;63.84
61805;BME280;47725;47.912;7.356;2023-08-06T07:50:56;98699.16;;;17.32;62.94
61805;BME280;47725;47.912;7.356;2023-08-06T07:54:56;98701.51;;;17.46;62.64
61805;BME280;47725;47.912;7.356;2023-08-06T07:58:56;98703.05;;;17.54;62.88
61805;BME280;47725;47.912;7.356;2023-08-06T08:02:57;98705.13;;;17.60;62.65
61805;BME280;47725;47.912;7.356;2023-08-06T08:06:56;98707.83;;;17.63;62.62
61805;BME280;47725;47.912;7.356;2023-08-06T08:10:56;98712.42;;;17.64;62.54
61805;BME280;47725;47.912;7.356;2023-08-06T08:14:56;98717.36;;;17.65;62.42
61805;BME280;47725;47.912;7.356;2023-08-06T08:18:56;98722.69;;;17.64;62.24
61805;BME280;47725;47.912;7.356;2023-08-06T08:22:57;98726.62;;;17.64;62.39
61805;BME280;47725;47.912;7.356;2023-08-06T08:26:56;98730.59;;;17.62;62.61
61805;BME280;47725;47.912;7.356;2023-08-06T08:30:57;98735.69;;;17.62;62.85
61805;BME280;47725;47.912;7.356;2023-08-06T08:34:56;98740.94;;;17.65;62.63
61805;BME280;47725;47.912;7.356;2023-08-06T08:38:56;98747.68;;;17.68;62.71
61805;BME280;47725;47.912;7.356;2023-08-06T08:42:57;98753.16;;;17.72;62.32
61805;BME280;47725;47.912;7.356;2023-08-06T08:46:56;98758.00;;;17.72;62.72
61805;BME280;47725;47.912;7.356;2023-08-06T08:50:56;98762.17;;;17.73;62.79
61805;BME280;47725;47.912;7.356;2023-08-06T08:54:56;98765.99;;;17.75;62.58
61805;BME280;47725;47.912;7.356;2023-08-06T08:58:56;98767.88;;;17.78;62.13
61805;BME280;47725;47.912;7.356;2023-08-06T09:02:56;98770.51;;;17.83;61.87
61805;BME280;47725;47.912;7.356;2023-08-06T09:06:56;98773.39;;;17.91;61.97
61805;BME280;47725;47.912;7.356;2023-08-06T09:10:56;98776.50;;;18.00;61.44
61805;BME280;47725;47.912;7.356;2023-08-06T09:14:56;98780.10;;;18.07;60.99
61805;BME280;47725;47.912;7.356;2023-08-06T09:18:58;98783.95;;;18.15;61.08
61805;BME280;47725;47.912;7.356;2023-08-06T09:22:56;98788.81;;;18.23;60.68
61805;BME280;47725;47.912;7.356;2023-08-06T09:26:56;98793.47;;;18.31;60.05
61805;BME280;47725;47.912;7.356;2023-08-06T09:30:59;98796.87;;;18.41;59.54
61805;BME280;47725;47.912;7.356;2023-08-06T09:34:56;98802.75;;;18.50;59.26
61805;BME280;47725;47.912;7.356;2023-08-06T09:38:56;98808.84;;;18.58;59.77
61805;BME280;47725;47.912;7.356;2023-08-06T09:42:57;98814.17;;;18.66;58.94
61805;BME280;47725;47.912;7.356;2023-08-06T09:47:03;98819.23;;;18.72;58.38
61805;BME280;47725;47.912;7.356;2023-08-06T09:50:56;98823.60;;;18.75;58.78
61805;BME280;47725;47.912;7.356;2023-08-06T09:54:56;98827.92;;;18.76;58.52
61805;BME280;47725;47.912;7.356;2023-08-06T09:58:56;98835.28;;;18.77;59.18
61805;BME280;47725;47.912;7.356;2023-08-06T10:02:59;98842.58;;;18.81;58.70
61805;BME280;47725;47.912;7.356;2023-08-06T10:06:56;98848.99;;;18.84;58.78
61805;BME280;47725;47.912;7.356;2023-08-06T10:10:56;98855.16;;;18.87;58.88
61805;BME280;47725;47.912;7.356;2023-08-06T10:14:57;98859.28;;;18.89;58.39
61805;BME280;47725;47.912;7.356;2023-08-06T10:18:57;98862.50;;;18.89;58.94
61805;BME280;47725;47.912;7.356;2023-08-06T10:23:03;98866.11;;;18.90;58.87
61805;BME280;47725;47.912;7.356;2023-08-06T10:26:57;98868.32;;;18.93;58.30
61805;BME280;47725;47.912;7.356;2023-08-06T10:30:56;98873.24;;;18.98;58.09
61805;BME280;47725;47.912;7.356;2023-08-06T10:34:57;98876.34;;;19.02;58.01
61805;BME280;47725;47.912;7.356;2023-08-06T10:38:56;98880.11;;;19.07;57.32
61805;BME280;47725;47.912;7.356;2023-08-06T10:43:00;98883.67;;;19.11;58.17
61805;BME280;47725;47.912;7.356;2023-08-06T10:46:56;98888.01;;;19.14;57.39
61805;BME280;47725;47.912;7.356;2023-08-06T10:50:56;98891.85;;;19.16;58.08
61805;BME280;47725;47.912;7.356;2023-08-06T10:54:56;98895.76;;;19.22;57.87
61805;BME280;47725;47.912;7.356;2023-08-06T10:58:56;98898.55;;;19.27;57.16
61805;BME280;47725;47.912;7.356;2023-08-06T11:02:56;98901.19;;;19.34;59.02
61805;BME280;47725;47.912;7.356;2023-08-06T11:06:56;98904.86;;;19.51;56.72
61805;BME280;47725;47.912;7.356;2023-08-06T11:11:07;98909.92;;;19.63;55.50
61805;BME280;47725;47.912;7.356;2023-08-06T11:14:56;98915.56;;;19.68;54.89
61805;BME280;47725;47.912;7.356;2023-08-06T11:18:56;98919.45;;;19.66;55.66
61805;BME280;47725;47.912;7.356;2023-08-06T11:22:56;98924.17;;;19.63;56.39
61805;BME280;47725;47.912;7.356;2023-08-06T11:26:56;98929.37;;;19.63;55.54
61805;BME280;47725;47.912;7.356;2023-08-06T11:30:57;98935.28;;;19.68;55.60
61805;BME280;47725;47.912;7.356;2023-08-06T11:34:56;98940.58;;;19.75;54.10
61805;BME280;47725;47.912;7.356;2023-08-06T11:38:57;98944.69;;;19.81;53.97
61805;BME280;47725;47.912;7.356;2023-08-06T11:42:56;98946.64;;;19.86;53.21
61805;BME280;47725;47.912;7.356;2023-08-06T11:46:56;98948.47;;;19.91;52.56
61805;BME280;47725;47.912;7.356;2023-08-06T11:50:56;98950.34;;;20.00;52.81
61805;BME280;47725;47.912;7.356;2023-08-06T11:55:03;98952.95;;;20.13;52.10
61805;BME280;47725;47.912;7.356;2023-08-06T11:58:56;98953.72;;;20.25;51.34
61805;BME280;47725;47.912;7.356;2023-08-06T12:02:56;98955.66;;;20.40;49.79
61805;BME280;47725;47.912;7.356;2023-08-06T12:07:04;98957.79;;;20.57;49.14
61805;BME280;47725;47.912;7.356;2023-08-06T12:10:56;98960.47;;;20.75;48.89
61805;BME280;47725;47.912;7.356;2023-08-06T12:14:56;98964.15;;;20.93;48.96
61805;BME280;47725;47.912;7.356;2023-08-06T12:18:56;98970.01;;;21.08;47.70
61805;BME280;47725;47.912;7.356;2023-08-06T12:22:56;98976.39;;;21.15;46.10
61805;BME280;47725;47.912;7.356;2023-08-06T12:26:56;98982.75;;;21.17;47.09
61805;BME280;47725;47.912;7.356;2023-08-06T12:30:56;98989.31;;;21.22;47.62
61805;BME280;47725;47.912;7.356;2023-08-06T12:34:56;98994.69;;;21.28;47.90
61805;BME280;47725;47.912;7.356;2023-08-06T12:38:56;98997.60;;;21.34;47.29
61805;BME280;47725;47.912;7.356;2023-08-06T12:42:56;98998.38;;;21.45;46.51
61805;BME280;47725;47.912;7.356;2023-08-06T12:46:56;99001.51;;;21.60;46.00
61805;BME280;47725;47.912;7.356;2023-08-06T12:50:56;99001.90;;;21.70;44.95
61805;BME280;47725;47.912;7.356;2023-08-06T12:54:56;99002.12;;;21.79;45.26
61805;BME280;47725;47.912;7.356;2023-08-06T12:58:56;99003.02;;;21.91;44.58
61805;BME280;47725;47.912;7.356;2023-08-06T13:02:57;99003.50;;;22.05;44.38
61805;BME280;47725;47.912;7.356;2023-08-06T13:06:56;99006.84;;;22.15;42.65
61805;BME280;47725;47.912;7.356;2023-08-06T13:10:56;99009.56;;;22.18;42.34
61805;BME280;47725;47.912;7.356;2023-08-06T13:14:56;99012.58;;;22.15;42.92
61805;BME280;47725;47.912;7.356;2023-08-06T13:18:56;99016.33;;;22.14;44.37
61805;BME280;47725;47.912;7.356;2023-08-06T13:22:57;99021.98;;;22.12;44.11
61805;BME280;47725;47.912;7.356;2023-08-06T13:26:56;99026.48;;;22.11;44.00
61805;BME280;47725;47.912;7.356;2023-08-06T13:30:56;99031.43;;;22.07;43.89
61805;BME280;47725;47.912;7.356;2023-08-06T13:34:56;99036.58;;;21.99;44.12
61805;BME280;47725;47.912;7.356;2023-08-06T13:38:56;99043.09;;;21.88;44.69
61805;BME280;47725;47.912;7.356;2023-08-06T13:42:56;99048.30;;;21.73;44.31
61805;BME280;47725;47.912;7.356;2023-08-06T13:46:56;99052.86;;;21.60;45.50
61805;BME280;47725;47.912;7.356;2023-08-06T13:50:56;99058.59;;;21.46;45.43
61805;BME280;47725;47.912;7.356;2023-08-06T13:54:56;99064.01;;;21.28;46.69
61805;BME280;47725;47.912;7.356;2023-08-06T13:58:56;99070.37;;;21.13;47.15
61805;BME280;47725;47.912;7.356;2023-08-06T14:02:56;99075.01;;;21.04;46.96
61805;BME280;47725;47.912;7.356;2023-08-06T14:06:56;99080.21;;;20.99;46.43
61805;BME280;47725;47.912;7.356;2023-08-06T14:10:56;99086.08;;;21.02;46.56
61805;BME280;47725;47.912;7.356;2023-08-06T14:14:56;99088.25;;;21.06;45.67
61805;BME280;47725;47.912;7.356;2023-08-06T14:18:56;99089.95;;;21.08;45.77
61805;BME280;47725;47.912;7.356;2023-08-06T14:22:56;99092.25;;;21.14;45.69
61805;BME280;47725;47.912;7.356;2023-08-06T14:26:56;99095.37;;;21.21;45.51
61805;BME280;47725;47.912;7.356;2023-08-06T14:30:56;99096.68;;;21.22;44.80
61805;BME280;47725;47.912;7.356;2023-08-06T14:34:56;99096.89;;;21.18;44.55
61805;BME280;47725;47.912;7.356;2023-08-06T14:38:56;99100.33;;;21.12;45.09
61805;BME280;47725;47.912;7.356;2023-08-06T14:42:56;99107.14;;;21.04;44.40
61805;BME280;47725;47.912;7.356;2023-08-06T14:46:56;99112.95;;;20.95;44.24
61805;BME280;47725;47.912;7.356;2023-08-06T14:50:56;99117.99;;;20.88;43.63
61805;BME280;47725;47.912;7.356;2023-08-06T14:54:56;99123.13;;;20.83;44.39
61805;BME280;47725;47.912;7.356;2023-08-06T14:58:56;99126.12;;;20.81;44.49
61805;BME280;47725;47.912;7.356;2023-08-06T15:02:56;99129.25;;;20.83;42.86
61805;BME280;47725;47.912;7.356;2023-08-06T15:06:56;99134.52;;;20.85;42.76
61805;BME280;47725;47.912;7.356;2023-08-06T15:10:56;99136.60;;;20.85;43.41
61805;BME280;47725;47.912;7.356;2023-08-06T15:14:56;99137.54;;;20.89;43.57
61805;BME280;47725;47.912;7.356;2023-08-06T15:18:56;99140.92;;;20.91;43.59
61805;BME280;47725;47.912;7.356;2023-08-06T15:22:56;99146.03;;;20.91;44.02
61805;BME280;47725;47.912;7.356;2023-08-06T15:26:56;99150.15;;;20.90;44.18
61805;BME280;47725;47.912;7.356;2023-08-06T15:30:56;99153.32;;;20.88;44.05
61805;BME280;47725;47.912;7.356;2023-08-06T15:34:56;99155.11;;;20.82;44.93
61805;BME280;47725;47.912;7.356;2023-08-06T15:38:56;99155.83;;;20.81;44.99
61805;BME280;47725;47.912;7.356;2023-08-06T15:42:56;99153.07;;;20.86;44.45
61805;BME280;47725;47.912;7.356;2023-08-06T15:46:56;99152.18;;;20.88;44.49
61805;BME280;47725;47.912;7.356;2023-08-06T15:50:56;99153.44;;;20.92;44.35
61805;BME280;47725;47.912;7.356;2023-08-06T15:54:56;99157.06;;;20.97;44.17
61805;BME280;47725;47.912;7.356;2023-08-06T15:58:56;99163.47;;;21.00;43.47
61805;BME280;47725;47.912;7.356;2023-08-06T16:02:56;99169.18;;;21.00;42.94
61805;BME280;47725;47.912;7.356;2023-08-06T16:06:56;99172.33;;;20.98;43.18
61805;BME280;47725;47.912;7.356;2023-08-06T16:10:56;99177.31;;;20.94;42.48
61805;BME280;47725;47.912;7.356;2023-08-06T16:14:56;99181.01;;;20.88;43.24
61805;BME280;47725;47.912;7.356;2023-08-06T16:18:56;99187.44;;;20.84;43.80
61805;BME280;47725;47.912;7.356;2023-08-06T16:22:56;99192.54;;;20.77;44.04
61805;BME280;47725;47.912;7.356;2023-08-06T16:26:56;99196.15;;;20.70;44.59
61805;BME280;47725;47.912;7.356;2023-08-06T16:30:56;99196.53;;;20.64;44.65
61805;BME280;47725;47.912;7.356;2023-08-06T16:34:56;99195.42;;;20.59;44.31
61805;BME280;47725;47.912;7.356;2023-08-06T16:38:56;99193.38;;;20.54;43.62
61805;BME280;47725;47.912;7.356;2023-08-06T16:42:56;99192.95;;;20.53;43.92
61805;BME280;47725;47.912;7.356;2023-08-06T16:46:56;99194.70;;;20.54;43.80
61805;BME280;47725;47.912;7.356;2023-08-06T16:50:57;99198.10;;;20.54;43.35
61805;BME280;47725;47.912;7.356;2023-08-06T16:54:56;99203.64;;;20.51;43.38
61805;BME280;47725;47.912;7.356;2023-08-06T16:58:56;99209.92;;;20.46;43.78
61805;BME280;47725;47.912;7.356;2023-08-06T17:02:56;99217.69;;;20.41;43.73
61805;BME280;47725;47.912;7.356;2023-08-06T17:06:56;99225.89;;;20.37;44.19
61805;BME280;47725;47.912;7.356;2023-08-06T17:10:56;99231.76;;;20.34;45.42
61805;BME280;47725;47.912;7.356;2023-08-06T17:14:56;99235.50;;;20.31;46.08
61805;BME280;47725;47.912;7.356;2023-08-06T17:18:56;99240.02;;;20.27;46.04
61805;BME280;47725;47.912;7.356;2023-08-06T17:22:56;99241.11;;;20.25;46.30
61805;BME280;47725;47.912;7.356;2023-08-06T17:26:56;99242.92;;;20.21;46.40
61805;BME280;47725;47.912;7.356;2023-08-06T17:30:56;99246.08;;;20.17;47.03
61805;BME280;47725;47.912;7.356;2023-08-06T17:34:56;99248.07;;;20.10;47.43
61805;BME280;47725;47.912;7.356;2023-08-06T17:38:56;99247.91;;;20.04;47.00
61805;BME280;47725;47.912;7.356;2023-08-06T17:42:56;99247.86;;;20.00;46.65
61805;BME280;47725;47.912;7.356;2023-08-06T17:46:57;99247.52;;;19.95;46.60
61805;BME280;47725;47.912;7.356;2023-08-06T17:50:56;99247.63;;;19.92;46.45
61805;BME280;47725;47.912;7.356;2023-08-06T17:54:56;99248.54;;;19.89;45.54
61805;BME280;47725;47.912;7.356;2023-08-06T17:58:56;99250.17;;;19.86;45.71
61805;BME280;47725;47.912;7.356;2023-08-06T18:02:56;99252.03;;;19.80;45.85
61805;BME280;47725;47.912;7.356;2023-08-06T18:06:56;99253.89;;;19.74;45.36
61805;BME280;47725;47.912;7.356;2023-08-06T18:10:56;99256.36;;;19.69;45.71
61805;BME280;47725;47.912;7.356;2023-08-06T18:14:56;99258.59;;;19.66;45.34
61805;BME280;47725;47.912;7.356;2023-08-06T18:18:56;99261.40;;;19.63;45.48
61805;BME280;47725;47.912;7.356;2023-08-06T18:22:56;99265.77;;;19.62;45.69
61805;BME280;47725;47.912;7.356;2023-08-06T18:26:56;99268.08;;;19.60;45.75
61805;BME280;47725;47.912;7.356;2023-08-06T18:30:56;99269.29;;;19.58;45.86
61805;BME280;47725;47.912;7.356;2023-08-06T18:34:56;99271.23;;;19.53;46.11
61805;BME280;47725;47.912;7.356;2023-08-06T18:38:56;99273.25;;;19.47;46.25
61805;BME280;47725;47.912;7.356;2023-08-06T18:42:56;99276.39;;;19.40;46.37
61805;BME280;47725;47.912;7.356;2023-08-06T18:46:56;99279.44;;;19.31;46.74
61805;BME280;47725;47.912;7.356;2023-08-06T18:50:56;99284.44;;;19.21;46.93
61805;BME280;47725;47.912;7.356;2023-08-06T18:54:56;99289.95;;;19.12;46.95
61805;BME280;47725;47.912;7.356;2023-08-06T18:58:56;99294.86;;;19.04;46.92
61805;BME280;47725;47.912;7.356;2023-08-06T19:02:56;99299.77;;;18.98;46.97
61805;BME280;47725;47.912;7.356;2023-08-06T19:06:56;99304.57;;;18.91;46.78
61805;BME280;47725;47.912;7.356;2023-08-06T19:10:56;99308.61;;;18.85;46.82
61805;BME280;47725;47.912;7.356;2023-08-06T19:14:56;99312.87;;;18.79;47.14
61805;BME280;47725;47.912;7.356;2023-08-06T19:18:56;99316.38;;;18.72;47.44
61805;BME280;47725;47.912;7.356;2023-08-06T19:22:56;99320.04;;;18.66;47.68
61805;BME280;47725;47.912;7.356;2023-08-06T19:26:56;99322.64;;;18.58;48.09
61805;BME280;47725;47.912;7.356;2023-08-06T19:30:57;99324.30;;;18.50;48.31
61805;BME280;47725;47.912;7.356;2023-08-06T19:34:56;99324.97;;;18.43;48.21
61805;BME280;47725;47.912;7.356;2023-08-06T19:38:56;99324.70;;;18.39;48.21
61805;BME280;47725;47.912;7.356;2023-08-06T19:42:56;99324.39;;;18.33;48.58
61805;BME280;47725;47.912;7.356;2023-08-06T19:46:56;99325.76;;;18.27;48.46
61805;BME280;47725;47.912;7.356;2023-08-06T19:50:56;99326.74;;;18.22;48.45
61805;BME280;47725;47.912;7.356;2023-08-06T19:54:56;99328.66;;;18.17;48.86
61805;BME280;47725;47.912;7.356;2023-08-06T19:58:56;99330.11;;;18.10;49.16
61805;BME280;47725;47.912;7.356;2023-08-06T20:02:56;99333.58;;;18.05;49.00
61805;BME280;47725;47.912;7.356;2023-08-06T20:06:56;99338.28;;;18.04;48.84
61805;BME280;47725;47.912;7.356;2023-08-06T20:10:56;99342.47;;;18.03;49.08
61805;BME280;47725;47.912;7.356;2023-08-06T20:14:56;99345.17;;;18.03;49.11
61805;BME280;47725;47.912;7.356;2023-08-06T20:18:56;99348.44;;;18.02;49.24
61805;BME280;47725;47.912;7.356;2023-08-06T20:22:56;99351.39;;;18.01;49.44
61805;BME280;47725;47.912;7.356;2023-08-06T20:26:56;99353.61;;;17.97;49.91
61805;BME280;47725;47.912;7.356;2023-08-06T20:30:56;99354.96;;;17.93;49.79
61805;BME280;47725;47.912;7.356;2023-08-06T20:34:56;99357.23;;;17.90;49.83
61805;BME280;47725;47.912;7.356;2023-08-06T20:38:56;99359.82;;;17.87;49.84
61805;BME280;47725;47.912;7.356;2023-08-06T20:42:56;99361.44;;;17.87;49.59
61805;BME280;47725;47.912;7.356;2023-08-06T20:46:56;99362.27;;;17.88;49.23
61805;BME280;47725;47.912;7.356;2023-08-06T20:50:56;99363.62;;;17.88;49.19
61805;BME280;47725;47.912;7.356;2023-08-06T20:54:56;99365.50;;;17.88;49.03
61805;BME280;47725;47.912;7.356;2023-08-06T20:58:56;99366.66;;;17.88;48.60
61805;BME280;47725;47.912;7.356;2023-08-06T21:02:56;99369.54;;;17.88;48.33
61805;BME280;47725;47.912;7.356;2023-08-06T21:06:56;99372.09;;;17.89;48.26
61805;BME280;47725;47.912;7.356;2023-08-06T21:10:56;99375.37;;;17.89;48.14
61805;BME280;47725;47.912;7.356;2023-08-06T21:14:56;99379.74;;;17.89;48.17
61805;BME280;47725;47.912;7.356;2023-08-06T21:18:56;99385.12;;;17.90;47.89